Time;durP1;ratioP1;P1;durP2;ratioP2;P2;SDS_P1;SDS_P2;PMS_P1;PMS_P2;Temp;Humidity;BMP_temperature;BMP_pressure;BME280_temperature;BME280_humidity;BME280_pressure;Samples;Min_cycle;Max_cycle;Signal;HPM_P1;HPM_P2
2022/08/12 00:44:30;;;;;;;2.28;0.98;;;15.40;99.90;;;;;;4979866;28;20038;-70
2022/08/12 00:47:00;;;;;;;5.47;1.77;;;15.50;99.90;;;;;;4977418;28;20061;-71
2022/08/12 00:49:29;;;;;;;1.95;1.10;;;15.50;99.90;;;;;;4984407;28;20065;-70
2022/08/12 00:52:06;;;;;;;2.10;0.98;;;15.50;99.90;;;;;;4976986;28;20387;-71
2022/08/12 00:54:40;;;;;;;2.72;1.25;;;15.50;99.90;;;;;;4980433;28;20029;-71
2022/08/12 00:57:18;;;;;;;2.47;0.95;;;15.50;99.90;;;;;;4977161;28;20034;-71
2022/08/12 00:59:52;;;;;;;2.33;1.08;;;15.60;99.90;;;;;;4985403;28;20021;-70
2022/08/12 01:02:27;;;;;;;2.10;1.60;;;15.50;99.90;;;;;;4976722;28;20023;-70
2022/08/12 01:13:24;;;;;;;1.90;1.17;;;15.40;99.90;;;;;;4976377;28;20085;-70
2022/08/12 01:16:00;;;;;;;1.25;1.00;;;15.30;99.90;;;;;;4978511;28;20022;-68
2022/08/12 01:18:33;;;;;;;1.33;1.00;;;15.20;99.90;;;;;;4980946;28;20029;-71
2022/08/12 01:21:12;;;;;;;1.95;1.73;;;15.20;99.90;;;;;;4977292;28;20018;-71
2022/08/12 01:23:57;;;;;;;2.08;1.10;;;15.20;99.90;;;;;;4984630;28;20025;-69
2022/08/12 01:26:25;;;;;;;3.45;1.55;;;15.20;99.90;;;;;;4978013;28;20818;-70
2022/08/12 01:28:57;;;;;;;2.08;1.58;;;15.20;99.90;;;;;;4980642;28;20106;-69
2022/08/12 01:31:28;;;;;;;2.33;1.50;;;15.20;99.90;;;;;;4978454;28;20014;-71
2022/08/12 01:34:02;;;;;;;2.97;1.33;;;15.20;99.90;;;;;;4978076;28;20130;-70
2022/08/12 01:36:37;;;;;;;1.90;1.33;;;15.30;99.90;;;;;;4990552;28;20018;-73
2022/08/12 01:39:05;;;;;;;3.67;1.50;;;15.30;99.90;;;;;;4996805;28;20022;-71
2022/08/12 01:41:39;;;;;;;3.63;2.20;;;15.40;99.90;;;;;;4996236;28;20038;-71
2022/08/12 01:44:09;;;;;;;3.30;1.30;;;15.30;99.90;;;;;;4978686;28;20026;-71
2022/08/12 01:47:03;;;;;;;1.80;1.25;;;15.40;99.90;;;;;;4973804;28;20034;-73
2022/08/12 01:49:56;;;;;;;3.22;1.45;;;15.40;99.90;;;;;;4994714;28;20049;-73
2022/08/12 01:52:47;;;;;;;2.90;1.42;;;15.40;99.90;;;;;;4995302;28;20029;-73
2022/08/12 01:55:18;;;;;;;4.63;1.35;;;15.30;99.90;;;;;;4986948;28;20018;-72
2022/08/12 01:57:50;;;;;;;2.58;1.13;;;15.30;99.90;;;;;;4978190;28;20137;-72
2022/08/12 02:00:19;;;;;;;1.98;0.95;;;15.30;99.90;;;;;;4985957;28;20018;-69
2022/08/12 02:12:25;;;;;;;2.63;1.10;;;15.60;99.90;;;;;;4959014;28;20062;-72
2022/08/12 02:15:32;;;;;;;3.28;1.77;;;15.60;99.90;;;;;;4959472;28;20027;-72
2022/08/12 02:18:16;;;;;;;5.25;1.30;;;15.60;99.90;;;;;;4966677;28;20038;-72
2022/08/12 02:21:01;;;;;;;3.33;1.00;;;15.60;99.90;;;;;;4955514;28;20026;-73
2022/08/12 02:23:30;;;;;;;2.10;1.05;;;15.60;99.90;;;;;;4985983;28;20122;-70
2022/08/12 02:26:04;;;;;;;1.75;1.20;;;15.70;99.90;;;;;;4958047;28;20376;-72
2022/08/12 02:28:32;;;;;;;1.65;1.13;;;15.70;99.90;;;;;;4954781;28;20058;-73
2022/08/12 02:31:05;;;;;;;3.13;1.63;;;15.80;99.90;;;;;;4957735;28;20088;-73
2022/08/12 02:33:33;;;;;;;2.03;1.15;;;15.80;99.90;;;;;;4957657;28;20030;-70
2022/08/12 02:36:01;;;;;;;1.88;1.25;;;15.80;99.90;;;;;;4987316;28;20018;-70
2022/08/12 02:38:30;;;;;;;2.75;1.00;;;15.90;99.90;;;;;;4958844;28;20054;-70
2022/08/12 02:41:00;;;;;;;5.47;1.42;;;15.80;99.90;;;;;;4956620;28;20124;-71
2022/08/12 02:43:45;;;;;;;2.60;1.15;;;15.90;99.90;;;;;;4959095;28;20026;-70
2022/08/12 02:46:15;;;;;;;2.25;1.30;;;15.80;99.90;;;;;;4959097;28;20022;-71
2022/08/12 02:48:52;;;;;;;5.60;1.45;;;15.90;99.90;;;;;;4957848;28;20500;-70
2022/08/12 02:51:25;;;;;;;1.75;1.52;;;15.90;99.90;;;;;;4959259;28;20030;-74
2022/08/12 02:53:53;;;;;;;3.30;1.75;;;15.90;99.90;;;;;;4956746;28;20069;-72
2022/08/12 02:56:20;;;;;;;4.07;1.70;;;16.00;99.90;;;;;;4958461;28;20073;-73
2022/08/12 02:58:48;;;;;;;2.50;1.52;;;16.20;99.90;;;;;;4956951;28;20093;-71
2022/08/12 03:01:17;;;;;;;2.10;1.40;;;16.40;99.90;;;;;;4959441;28;20046;-72
2022/08/12 03:03:51;;;;;;;1.60;1.00;;;16.60;99.90;;;;;;4958231;28;20071;-72
2022/08/12 03:06:23;;;;;;;2.67;1.63;;;16.70;99.90;;;;;;4958453;28;20066;-71
2022/08/12 03:08:56;;;;;;;2.35;1.10;;;16.80;99.90;;;;;;4956885;28;20663;-71
2022/08/12 03:11:27;;;;;;;1.42;1.20;;;16.80;99.90;;;;;;4958231;28;20089;-72
2022/08/12 03:14:01;;;;;;;2.03;1.30;;;16.80;99.90;;;;;;4956414;28;20069;-71
2022/08/12 03:16:32;;;;;;;9.82;8.07;;;16.90;99.90;;;;;;4958445;28;20018;-71
2022/08/12 03:18:59;;;;;;;3.38;1.45;;;17.00;99.90;;;;;;4957158;28;20036;-73
2022/08/12 03:21:26;;;;;;;2.17;1.13;;;16.90;99.90;;;;;;4958402;28;20110;-73
2022/08/12 03:23:56;;;;;;;2.75;2.03;;;16.90;99.90;;;;;;4955845;28;20077;-71
2022/08/12 03:26:24;;;;;;;3.83;1.20;;;16.80;99.90;;;;;;4957902;28;20476;-72
2022/08/12 03:28:52;;;;;;;3.00;1.50;;;16.80;99.90;;;;;;4956812;28;20126;-70
2022/08/12 03:31:23;;;;;;;2.40;1.20;;;16.70;99.90;;;;;;4958267;28;20027;-72
2022/08/12 03:33:52;;;;;;;2.70;1.15;;;16.50;99.90;;;;;;4957391;28;20843;-71
2022/08/12 03:36:21;;;;;;;1.85;1.33;;;16.30;99.90;;;;;;4958746;28;20388;-70
2022/08/12 03:41:48;;;;;;;3.45;1.67;;;16.20;99.90;;;;;;4976157;28;20126;-72
2022/08/12 04:01:56;;;;;;;3.78;1.70;;;16.00;99.90;;;;;;4964330;28;20033;-70
2022/08/12 04:04:44;;;;;;;4.20;1.40;;;15.90;99.90;;;;;;4975978;28;20027;-72
2022/08/12 04:07:12;;;;;;;6.00;1.73;;;16.00;99.90;;;;;;4975127;28;20034;-71
2022/08/12 04:09:42;;;;;;;6.10;2.20;;;16.00;99.90;;;;;;4979345;28;20237;-70
2022/08/12 04:14:56;;;;;;;4.82;2.00;;;15.90;99.90;;;;;;4986653;28;20536;-70
2022/08/12 04:17:27;;;;;;;5.75;1.80;;;15.90;99.90;;;;;;4980623;28;20034;-70
2022/08/12 04:19:58;;;;;;;5.35;2.40;;;15.90;99.90;;;;;;4980067;28;20430;-70
2022/08/12 04:22:28;;;;;;;3.97;2.05;;;15.90;99.90;;;;;;4980134;28;20042;-69
2022/08/12 04:25:00;;;;;;;6.13;1.88;;;15.90;99.90;;;;;;5000243;28;20026;-69
2022/08/12 04:27:30;;;;;;;5.80;1.98;;;15.90;99.90;;;;;;5000143;28;20042;-71
2022/08/12 04:29:57;;;;;;;3.30;1.77;;;15.90;99.90;;;;;;4999531;28;20026;-68
2022/08/12 04:32:25;;;;;;;3.25;1.23;;;15.80;99.90;;;;;;4979141;28;20030;-70
2022/08/12 04:34:54;;;;;;;3.10;1.13;;;15.80;99.90;;;;;;4980827;28;20018;-71
2022/08/12 04:37:22;;;;;;;3.28;1.35;;;15.90;99.90;;;;;;4997618;28;20660;-72
2022/08/12 04:39:50;;;;;;;3.65;1.38;;;15.90;99.90;;;;;;4992153;28;20076;-70
2022/08/12 04:42:18;;;;;;;3.88;1.38;;;15.80;99.90;;;;;;4977470;28;20105;-72
2022/08/12 04:44:47;;;;;;;2.35;1.15;;;15.90;99.90;;;;;;4979271;28;20026;-72
2022/08/12 04:47:15;;;;;;;2.13;1.10;;;15.90;99.90;;;;;;4995506;28;20048;-71
2022/08/12 04:49:45;;;;;;;3.33;1.45;;;15.80;99.90;;;;;;4995162;28;20026;-71
2022/08/12 04:52:13;;;;;;;2.20;1.52;;;15.90;99.90;;;;;;4977440;28;20498;-70
2022/08/12 04:54:42;;;;;;;3.78;1.10;;;15.80;99.90;;;;;;4980129;28;20026;-70
2022/08/12 04:57:09;;;;;;;2.22;1.55;;;15.90;99.90;;;;;;4977897;28;20376;-70
2022/08/12 04:59:37;;;;;;;2.97;1.20;;;15.90;99.90;;;;;;4984786;28;20022;-69
2022/08/12 05:02:05;;;;;;;3.42;1.13;;;15.90;99.90;;;;;;4999292;28;20026;-69
2022/08/12 05:04:32;;;;;;;3.15;1.33;;;15.90;99.90;;;;;;4981845;28;20035;-70
2022/08/12 05:07:01;;;;;;;3.28;1.40;;;15.90;99.90;;;;;;4978213;28;20113;-72
2022/08/12 05:09:29;;;;;;;4.90;1.38;;;15.80;99.90;;;;;;4979366;28;20463;-73
2022/08/12 05:11:56;;;;;;;3.38;1.55;;;15.90;99.90;;;;;;4984078;28;20029;-71
2022/08/12 05:14:23;;;;;;;2.00;1.40;;;15.80;99.90;;;;;;4998917;28;20641;-70
2022/08/12 05:16:52;;;;;;;2.45;1.30;;;15.90;99.90;;;;;;4997329;28;20029;-72
2022/08/12 05:19:20;;;;;;;2.35;1.38;;;15.80;99.90;;;;;;4992825;28;20081;-70
2022/08/12 05:21:47;;;;;;;2.50;1.20;;;15.90;99.90;;;;;;4975187;28;20483;-70
2022/08/12 05:24:15;;;;;;;3.83;1.35;;;15.80;99.90;;;;;;4985756;28;20164;-70
2022/08/12 05:26:42;;;;;;;4.50;1.48;;;15.90;99.90;;;;;;4995387;28;20486;-69
2022/08/12 05:29:11;;;;;;;3.30;1.40;;;15.80;99.90;;;;;;4999448;28;20451;-71
2022/08/12 05:31:42;;;;;;;2.20;1.17;;;15.90;99.90;;;;;;4982322;28;20066;-70
2022/08/12 05:34:13;;;;;;;1.92;1.27;;;15.80;99.90;;;;;;4978414;28;20083;-69
2022/08/12 05:36:43;;;;;;;1.08;0.93;;;15.80;99.90;;;;;;4982605;28;20588;-70
2022/08/12 05:39:11;;;;;;;2.42;1.50;;;15.80;99.90;;;;;;4979050;28;20029;-70
2022/08/12 05:41:38;;;;;;;1.88;1.00;;;15.70;99.90;;;;;;4977428;28;20033;-73
2022/08/12 05:44:08;;;;;;;1.35;0.80;;;15.70;99.90;;;;;;4978436;28;20037;-70
2022/08/12 05:46:36;;;;;;;1.98;1.10;;;15.60;99.90;;;;;;4975023;28;20128;-72
2022/08/12 05:49:05;;;;;;;2.72;0.80;;;15.60;99.90;;;;;;4976368;28;20045;-72
2022/08/12 05:51:34;;;;;;;1.27;0.95;;;15.60;99.90;;;;;;4977460;28;20046;-70
2022/08/12 05:54:02;;;;;;;1.00;0.80;;;15.50;99.90;;;;;;4973041;28;20047;-69
2022/08/12 05:56:33;;;;;;;2.75;1.05;;;15.50;99.90;;;;;;4976817;28;20041;-72
2022/08/12 05:59:01;;;;;;;2.13;1.20;;;15.50;99.90;;;;;;4974060;28;20117;-72
2022/08/12 06:01:29;;;;;;;1.33;0.80;;;15.50;99.90;;;;;;4978741;28;20022;-72
2022/08/12 06:03:59;;;;;;;1.55;0.90;;;15.40;99.90;;;;;;4974123;28;20014;-71
2022/08/12 06:06:26;;;;;;;1.23;0.80;;;15.40;99.90;;;;;;4971150;28;20041;-70
2022/08/12 06:08:54;;;;;;;1.42;0.95;;;15.40;99.90;;;;;;4972827;28;20019;-71
2022/08/12 06:11:25;;;;;;;1.58;1.10;;;15.40;99.90;;;;;;4977772;28;20026;-69
2022/08/12 06:13:54;;;;;;;3.10;1.02;;;15.40;99.90;;;;;;4973454;28;20057;-69
2022/08/12 06:16:23;;;;;;;2.17;0.75;;;15.40;99.90;;;;;;4977154;28;20041;-71
2022/08/12 06:18:53;;;;;;;1.48;0.90;;;15.40;99.90;;;;;;4973737;28;20029;-72
2022/08/12 06:21:22;;;;;;;2.47;1.48;;;15.30;99.90;;;;;;4973802;28;20704;-70
2022/08/12 06:23:51;;;;;;;1.52;1.00;;;15.40;99.90;;;;;;4976061;28;20022;-71
2022/08/12 06:26:19;;;;;;;2.58;0.80;;;15.30;99.90;;;;;;4972603;28;20031;-71
2022/08/12 06:28:50;;;;;;;2.47;1.05;;;15.30;99.90;;;;;;4974115;28;20034;-70
2022/08/12 06:31:20;;;;;;;2.35;1.58;;;15.30;99.90;;;;;;4974907;28;20057;-72
2022/08/12 06:33:49;;;;;;;3.83;1.80;;;15.30;99.90;;;;;;4976789;28;20034;-72
2022/08/12 06:36:22;;;;;;;2.13;1.00;;;15.30;99.90;;;;;;4974710;28;20497;-71
2022/08/12 06:38:49;;;;;;;1.58;1.08;;;15.30;99.90;;;;;;4973474;28;20027;-71
2022/08/12 06:44:03;;;;;;;1.95;1.38;;;15.20;99.90;;;;;;4975591;28;20049;-69
2022/08/12 06:46:31;;;;;;;1.98;1.50;;;15.10;99.90;;;;;;4977588;28;20084;-72
2022/08/12 06:48:58;;;;;;;5.40;4.90;;;15.10;99.90;;;;;;4980888;28;20014;-72
2022/08/12 06:51:30;;;;;;;9.52;8.52;;;15.10;99.90;;;;;;4995714;28;20034;-73
2022/08/12 06:53:59;;;;;;;5.45;4.95;;;15.10;99.90;;;;;;4994677;28;20054;-71
2022/08/12 06:56:27;;;;;;;5.95;5.13;;;15.00;99.90;;;;;;4976957;28;20030;-72
2022/08/12 06:58:56;;;;;;;2.53;2.30;;;15.00;99.90;;;;;;4973916;28;20061;-71
2022/08/12 07:01:24;;;;;;;3.28;1.92;;;14.90;99.90;;;;;;4977494;28;20404;-70
2022/08/12 07:03:52;;;;;;;3.38;2.15;;;15.00;99.90;;;;;;4975840;28;20034;-72
2022/08/12 07:06:19;;;;;;;3.95;1.92;;;14.90;99.90;;;;;;4974352;28;20033;-73
2022/08/12 07:08:46;;;;;;;6.30;2.35;;;14.90;99.90;;;;;;4976140;28;20041;-73
2022/08/12 07:11:14;;;;;;;3.05;2.53;;;14.90;99.90;;;;;;4973303;28;20218;-73
2022/08/12 07:13:49;;;;;;;3.35;1.70;;;14.90;99.90;;;;;;4972052;28;20062;-72
2022/08/12 07:16:20;;;;;;;3.72;2.17;;;14.90;99.90;;;;;;4967066;28;20029;-71
2022/08/12 07:18:52;;;;;;;4.75;2.05;;;14.90;99.90;;;;;;4977100;28;20109;-71
2022/08/12 07:21:20;;;;;;;3.75;2.25;;;14.90;99.90;;;;;;4974518;28;20427;-71
2022/08/12 07:23:49;;;;;;;3.88;2.55;;;14.90;99.90;;;;;;4976499;28;20034;-72
2022/08/12 07:26:20;;;;;;;3.00;1.85;;;14.90;99.90;;;;;;4976957;28;20030;-73
2022/08/12 07:28:48;;;;;;;2.47;2.25;;;14.80;99.90;;;;;;4976254;28;20026;-74
2022/08/12 07:31:17;;;;;;;4.97;2.53;;;14.80;99.90;;;;;;4974375;28;20088;-72
2022/08/12 07:33:44;;;;;;;4.03;2.42;;;14.80;99.90;;;;;;4977144;28;20021;-72
2022/08/12 07:36:13;;;;;;;4.47;3.22;;;14.70;99.90;;;;;;4976828;28;20085;-73
2022/08/12 07:38:45;;;;;;;4.43;3.25;;;14.70;99.90;;;;;;4991104;28;20026;-72
2022/08/12 07:41:18;;;;;;;5.57;3.35;;;14.70;99.90;;;;;;4978827;28;20117;-71
2022/08/12 07:43:47;;;;;;;5.90;3.75;;;14.70;99.90;;;;;;4973073;28;20049;-71
2022/08/12 07:46:19;;;;;;;5.07;3.45;;;14.70;99.90;;;;;;4976604;28;20076;-73
2022/08/12 07:48:55;;;;;;;5.23;3.47;;;14.70;99.90;;;;;;4975079;28;20035;-72
2022/08/12 07:51:24;;;;;;;4.05;3.40;;;14.60;99.90;;;;;;4987452;28;20114;-71
2022/08/12 07:53:53;;;;;;;5.50;4.97;;;14.60;99.90;;;;;;4972450;28;20030;-73
2022/08/12 07:56:20;;;;;;;5.38;3.97;;;14.60;99.90;;;;;;4976154;28;20522;-72
2022/08/12 07:58:48;;;;;;;4.32;3.92;;;14.60;99.90;;;;;;4974580;28;20043;-72
2022/08/12 08:01:20;;;;;;;6.43;4.22;;;14.60;99.90;;;;;;4979428;28;20511;-71
2022/08/12 08:06:43;;;;;;;4.53;3.50;;;14.50;99.90;;;;;;4975663;28;20049;-71
2022/08/12 08:09:13;;;;;;;4.45;3.65;;;14.50;99.90;;;;;;4974525;28;20062;-73
2022/08/12 08:14:31;;;;;;;5.40;4.07;;;14.50;99.90;;;;;;4966927;28;20069;-73
2022/08/12 08:17:00;;;;;;;6.45;4.03;;;14.50;99.90;;;;;;4974958;28;20104;-71
2022/08/12 08:19:28;;;;;;;6.30;5.00;;;14.40;99.90;;;;;;4974455;28;20486;-72
2022/08/12 08:21:57;;;;;;;5.35;4.85;;;14.40;99.90;;;;;;4974376;28;20081;-71
2022/08/12 08:24:26;;;;;;;6.60;4.95;;;14.40;99.90;;;;;;4973285;28;20101;-70
2022/08/12 08:26:59;;;;;;;8.75;6.68;;;14.40;99.90;;;;;;4974017;28;20156;-71
2022/08/12 08:29:28;;;;;;;9.50;6.95;;;14.40;99.90;;;;;;4971098;28;20396;-71
2022/08/12 08:32:00;;;;;;;5.13;4.15;;;14.40;99.90;;;;;;4971536;28;20038;-72
2022/08/12 08:34:30;;;;;;;10.75;4.72;;;14.40;99.90;;;;;;4971986;28;20861;-73
2022/08/12 08:36:57;;;;;;;6.40;4.80;;;14.40;99.90;;;;;;4971509;28;20650;-73
2022/08/12 08:39:26;;;;;;;5.18;4.68;;;14.40;99.90;;;;;;4973717;28;20031;-74
2022/08/12 08:44:40;;;;;;;7.72;4.97;;;14.30;99.90;;;;;;4973612;28;20057;-74
2022/08/12 08:47:09;;;;;;;7.72;5.53;;;14.30;99.90;;;;;;4973989;28;20049;-73
2022/08/12 08:49:37;;;;;;;7.63;5.90;;;14.30;99.90;;;;;;4976349;28;20030;-72
2022/08/12 08:52:06;;;;;;;9.98;5.53;;;14.30;99.90;;;;;;4977030;28;20063;-73
2022/08/12 08:54:33;;;;;;;5.18;3.92;;;14.30;99.90;;;;;;4974623;28;20022;-75
2022/08/12 08:57:02;;;;;;;6.72;4.07;;;14.20;99.90;;;;;;4977213;28;20112;-73
2022/08/12 08:59:30;;;;;;;7.00;4.68;;;14.20;99.90;;;;;;4978706;28;20514;-72
2022/08/12 09:01:58;;;;;;;5.13;3.83;;;14.20;99.90;;;;;;4982444;28;20037;-71
2022/08/12 09:04:25;;;;;;;5.90;3.75;;;14.20;99.90;;;;;;4999965;28;20025;-75
2022/08/12 09:06:55;;;;;;;5.47;4.40;;;14.20;99.90;;;;;;4997323;28;20099;-73
2022/08/12 09:09:23;;;;;;;6.00;4.32;;;14.20;99.90;;;;;;4977393;28;20031;-72
2022/08/12 09:14:35;;;;;;;7.22;4.68;;;14.20;99.90;;;;;;4987402;28;20141;-74
2022/08/12 09:17:04;;;;;;;7.90;4.60;;;14.20;99.90;;;;;;4997754;28;20092;-74
2022/08/12 09:19:31;;;;;;;6.72;4.93;;;14.20;99.90;;;;;;4984417;28;20062;-73
2022/08/12 09:21:59;;;;;;;7.75;5.55;;;14.20;99.90;;;;;;4979138;28;20031;-71
2022/08/12 09:24:26;;;;;;;6.53;4.88;;;14.20;99.90;;;;;;4979120;28;20026;-71
2022/08/12 09:26:54;;;;;;;8.43;5.20;;;14.20;99.90;;;;;;4979275;28;20041;-73
2022/08/12 09:29:21;;;;;;;9.35;5.35;;;14.20;99.90;;;;;;4977611;28;20022;-72
2022/08/12 09:31:51;;;;;;;7.00;5.93;;;14.20;99.90;;;;;;4979243;28;20471;-71
2022/08/12 09:34:18;;;;;;;8.13;5.68;;;14.10;99.90;;;;;;4978059;28;20031;-72
2022/08/12 09:36:46;;;;;;;7.85;5.40;;;14.10;99.90;;;;;;4978460;28;20030;-74
2022/08/12 09:39:13;;;;;;;7.15;5.47;;;14.10;99.90;;;;;;4978943;28;20023;-72
2022/08/12 09:41:43;;;;;;;6.00;5.40;;;14.10;99.90;;;;;;4978122;28;20081;-74
2022/08/12 09:46:57;;;;;;;8.60;5.93;;;14.10;99.90;;;;;;4978818;28;20080;-74
2022/08/12 09:49:24;;;;;;;8.25;5.88;;;14.10;99.90;;;;;;4977400;28;20036;-74
2022/08/12 09:51:53;;;;;;;7.55;5.50;;;14.00;99.90;;;;;;4977424;28;20037;-73
2022/08/12 09:54:23;;;;;;;6.05;5.20;;;14.10;99.90;;;;;;4978032;28;20022;-73
2022/08/12 09:56:52;;;;;;;5.70;4.90;;;14.10;99.90;;;;;;4978546;28;20123;-72
2022/08/12 09:59:19;;;;;;;6.72;4.82;;;14.10;99.90;;;;;;4977443;28;20414;-72
2022/08/12 10:01:47;;;;;;;6.57;5.80;;;14.10;99.90;;;;;;4980074;28;20097;-73
2022/08/12 10:04:14;;;;;;;6.00;5.38;;;14.10;99.90;;;;;;4977454;28;20030;-71
2022/08/12 10:06:42;;;;;;;6.82;5.22;;;14.10;99.90;;;;;;4977788;28;20330;-73
2022/08/12 10:09:10;;;;;;;8.23;5.82;;;14.10;99.90;;;;;;4976895;28;20025;-74
2022/08/12 10:14:23;;;;;;;6.93;6.00;;;14.00;99.90;;;;;;4977476;28;20185;-72
2022/08/12 10:16:51;;;;;;;8.48;6.18;;;14.10;99.90;;;;;;4978711;28;20113;-72
2022/08/12 10:19:19;;;;;;;7.30;5.82;;;14.10;99.90;;;;;;4977078;28;20090;-75
2022/08/12 10:21:47;;;;;;;7.63;5.55;;;14.00;99.90;;;;;;4977126;28;20068;-72
2022/08/12 10:24:22;;;;;;;7.43;5.45;;;14.00;99.90;;;;;;4976460;28;20022;-71
2022/08/12 10:29:39;;;;;;;7.88;7.07;;;14.00;99.90;;;;;;4977879;28;20326;-74
2022/08/12 10:32:22;;;;;;;8.18;6.50;;;14.00;99.90;;;;;;4979685;28;20472;-72
2022/08/12 10:34:50;;;;;;;6.78;6.07;;;14.00;99.90;;;;;;4978311;28;20173;-72
2022/08/12 10:37:19;;;;;;;8.13;6.10;;;14.00;99.90;;;;;;4975691;28;20030;-71
2022/08/12 10:39:46;;;;;;;7.78;6.80;;;14.00;99.90;;;;;;4977488;28;20379;-72
2022/08/12 10:45:09;;;;;;;9.77;8.00;;;14.00;99.90;;;;;;4978852;28;20056;-71
2022/08/12 10:47:37;;;;;;;8.88;7.78;;;14.00;99.90;;;;;;4976036;28;20105;-71
2022/08/12 10:50:08;;;;;;;9.05;7.55;;;14.10;99.90;;;;;;4978917;28;20084;-72
2022/08/12 10:52:38;;;;;;;8.93;7.40;;;14.00;99.90;;;;;;4974896;28;20029;-72
2022/08/12 10:55:05;;;;;;;8.70;7.15;;;14.10;99.90;;;;;;4978192;28;20034;-72
2022/08/12 10:57:32;;;;;;;7.18;6.22;;;14.10;99.90;;;;;;4974606;28;20034;-72
2022/08/12 11:00:00;;;;;;;8.60;6.80;;;14.10;99.90;;;;;;4978261;28;20023;-72
2022/08/12 11:02:27;;;;;;;8.90;7.50;;;14.10;99.90;;;;;;4974633;28;20018;-73
2022/08/12 11:04:57;;;;;;;10.38;7.85;;;14.00;99.90;;;;;;4978166;28;20101;-72
2022/08/12 11:07:25;;;;;;;8.05;6.00;;;14.10;99.90;;;;;;4976944;28;20040;-72
2022/08/12 11:09:53;;;;;;;6.72;5.63;;;14.00;99.90;;;;;;4976090;28;20038;-72
2022/08/12 11:12:21;;;;;;;6.18;5.25;;;14.00;99.90;;;;;;4978310;28;20026;-71
2022/08/12 11:14:49;;;;;;;8.85;5.85;;;14.00;99.90;;;;;;4975292;28;20202;-72
2022/08/12 11:17:16;;;;;;;10.93;9.88;;;14.00;99.90;;;;;;4978950;28;20022;-72
2022/08/12 11:19:44;;;;;;;20.55;18.38;;;14.00;99.90;;;;;;4975699;28;20030;-72
2022/08/12 11:22:12;;;;;;;10.38;8.95;;;14.00;99.90;;;;;;4977785;28;20414;-73
2022/08/12 11:24:40;;;;;;;8.85;7.95;;;14.00;99.90;;;;;;4975624;28;20033;-72
2022/08/12 11:27:08;;;;;;;20.33;18.00;;;14.00;99.90;;;;;;4978311;28;20421;-74
2022/08/12 11:29:36;;;;;;;15.18;13.68;;;14.00;99.90;;;;;;4975952;28;20034;-73
2022/08/12 11:32:04;;;;;;;12.15;10.93;;;14.00;99.90;;;;;;4978525;28;20101;-73
2022/08/12 11:34:32;;;;;;;10.57;9.48;;;14.00;99.90;;;;;;4977895;28;20023;-73
2022/08/12 11:37:06;;;;;;;9.68;7.95;;;14.00;99.90;;;;;;4975005;28;20817;-72
2022/08/12 11:39:33;;;;;;;9.35;7.53;;;14.00;99.90;;;;;;4977483;28;20058;-73
2022/08/12 11:42:02;;;;;;;8.10;7.22;;;14.00;99.90;;;;;;4977414;28;20384;-75
2022/08/12 11:44:29;;;;;;;7.03;6.32;;;14.00;99.90;;;;;;4977974;28;20022;-73
2022/08/12 11:46:57;;;;;;;8.05;6.75;;;14.00;99.90;;;;;;4974490;28;20680;-73
2022/08/12 11:49:26;;;;;;;8.93;7.00;;;14.00;99.90;;;;;;4978702;28;20033;-72
2022/08/12 11:51:53;;;;;;;8.23;7.03;;;13.90;99.90;;;;;;4974664;28;20027;-73
2022/08/12 11:54:21;;;;;;;7.57;6.85;;;14.00;99.90;;;;;;4979092;28;20395;-73
2022/08/12 11:56:48;;;;;;;8.20;7.35;;;13.90;99.90;;;;;;4974025;28;20051;-72
2022/08/12 11:59:16;;;;;;;11.73;7.80;;;14.00;99.90;;;;;;4975472;28;20089;-72
2022/08/12 12:01:43;;;;;;;8.38;7.57;;;13.90;99.90;;;;;;4973255;28;20018;-73
2022/08/12 12:04:10;;;;;;;7.57;6.88;;;14.00;99.90;;;;;;4976355;28;20052;-72
2022/08/12 12:06:38;;;;;;;9.65;8.10;;;13.90;99.90;;;;;;4975865;28;20038;-72
2022/08/12 12:09:05;;;;;;;12.63;10.10;;;13.80;99.90;;;;;;4975006;28;20046;-71
2022/08/12 12:11:33;;;;;;;14.05;10.88;;;13.90;99.90;;;;;;4977204;28;20026;-74
2022/08/12 12:14:00;;;;;;;11.65;9.52;;;13.80;99.90;;;;;;4989382;28;20038;-72
2022/08/12 12:16:27;;;;;;;10.77;9.40;;;13.80;99.90;;;;;;4958238;28;20027;-73
2022/08/12 12:18:55;;;;;;;10.32;9.25;;;13.80;99.90;;;;;;4964537;28;20034;-73
2022/08/12 12:21:22;;;;;;;10.15;8.85;;;13.80;99.90;;;;;;4973281;28;20369;-73
2022/08/12 12:23:49;;;;;;;9.68;8.73;;;13.70;99.90;;;;;;4954126;28;20404;-72
2022/08/12 12:26:17;;;;;;;9.80;8.80;;;13.70;99.90;;;;;;4956439;28;20585;-72
2022/08/12 12:28:44;;;;;;;9.60;8.60;;;13.70;99.90;;;;;;4976937;28;20501;-72
2022/08/12 12:31:13;;;;;;;10.93;9.32;;;13.70;99.90;;;;;;4979883;28;20033;-72
2022/08/12 12:33:40;;;;;;;9.38;8.35;;;13.70;99.90;;;;;;4981433;28;20026;-71
2022/08/12 12:36:08;;;;;;;9.93;8.93;;;13.70;99.90;;;;;;4977462;28;20034;-72
2022/08/12 12:38:36;;;;;;;10.95;9.23;;;13.70;99.90;;;;;;4980283;28;20085;-74
2022/08/12 12:41:03;;;;;;;10.02;8.48;;;13.70;99.90;;;;;;4978183;28;20097;-72
2022/08/12 12:43:30;;;;;;;10.63;8.60;;;13.70;99.90;;;;;;4979342;28;20058;-73
2022/08/12 12:45:58;;;;;;;10.90;9.40;;;13.70;99.90;;;;;;4981107;28;20018;-73
2022/08/12 12:48:25;;;;;;;9.13;8.13;;;13.60;99.90;;;;;;4978233;28;20041;-72
2022/08/12 12:53:46;;;;;;;9.30;8.32;;;13.60;99.90;;;;;;4977910;28;20092;-73
2022/08/12 12:56:22;;;;;;;9.73;8.50;;;13.70;99.90;;;;;;4974309;28;20379;-71
2022/08/12 12:58:53;;;;;;;9.18;8.38;;;13.70;99.90;;;;;;4979798;28;20038;-71
2022/08/12 13:01:26;;;;;;;10.52;8.90;;;13.70;99.90;;;;;;4977686;28;20018;-71
2022/08/12 13:03:55;;;;;;;10.77;9.75;;;13.70;99.90;;;;;;4976980;28;20022;-72
2022/08/12 13:06:29;;;;;;;10.40;9.38;;;13.60;99.90;;;;;;4974263;28;20056;-71
2022/08/12 13:08:57;;;;;;;11.35;10.35;;;13.60;99.90;;;;;;4976926;28;20022;-71
2022/08/12 13:11:27;;;;;;;12.15;11.05;;;13.60;99.90;;;;;;4977033;28;20030;-72
2022/08/12 13:13:56;;;;;;;10.88;9.88;;;13.60;99.90;;;;;;4977075;28;20026;-72
2022/08/12 13:16:28;;;;;;;10.27;9.38;;;13.60;99.90;;;;;;4977271;28;20026;-71
2022/08/12 13:18:56;;;;;;;11.65;10.43;;;13.60;99.90;;;;;;4978968;28;20037;-72
2022/08/12 13:21:24;;;;;;;10.50;9.50;;;13.60;99.90;;;;;;4976829;28;20030;-70
2022/08/12 13:23:53;;;;;;;11.23;10.13;;;13.60;99.90;;;;;;4979900;28;20038;-72
2022/08/12 13:26:20;;;;;;;11.30;10.13;;;13.60;99.90;;;;;;4976617;28;20023;-71
2022/08/12 13:28:52;;;;;;;11.25;10.15;;;13.60;99.90;;;;;;4979982;28;20034;-72
2022/08/12 13:31:21;;;;;;;10.40;9.50;;;13.60;99.90;;;;;;4976901;28;20065;-71
2022/08/12 13:33:50;;;;;;;9.73;8.73;;;13.60;99.90;;;;;;4980243;28;20034;-70
2022/08/12 13:36:19;;;;;;;9.52;8.68;;;13.60;99.90;;;;;;4976413;28;20030;-70
2022/08/12 13:38:52;;;;;;;8.98;8.07;;;13.60;99.90;;;;;;4980270;28;20026;-72
2022/08/12 13:41:32;;;;;;;10.40;8.15;;;13.60;99.90;;;;;;4975808;28;20080;-72
2022/08/12 13:44:08;;;;;;;8.85;8.05;;;13.60;99.90;;;;;;4979508;28;20038;-73
2022/08/12 13:46:36;;;;;;;8.20;7.40;;;13.70;99.90;;;;;;4977819;28;20073;-73
2022/08/12 13:49:06;;;;;;;8.73;7.93;;;13.60;99.90;;;;;;4978714;28;20185;-71
2022/08/12 13:51:34;;;;;;;7.85;7.07;;;13.60;99.90;;;;;;4977642;28;20097;-71
2022/08/12 13:54:03;;;;;;;9.02;8.13;;;13.60;99.90;;;;;;4979137;28;20026;-72
2022/08/12 13:56:32;;;;;;;9.32;8.38;;;13.60;99.90;;;;;;4975626;28;20073;-71
2022/08/12 13:59:01;;;;;;;8.43;7.63;;;13.60;99.90;;;;;;4979638;28;20399;-71
2022/08/12 14:01:29;;;;;;;9.15;8.25;;;13.60;99.90;;;;;;4977691;28;20475;-72
2022/08/12 14:03:56;;;;;;;9.65;8.85;;;13.60;99.90;;;;;;4978819;28;20045;-72
2022/08/12 14:06:24;;;;;;;9.23;8.43;;;13.60;99.90;;;;;;4978559;28;20033;-72
2022/08/12 14:08:51;;;;;;;8.70;7.90;;;13.60;99.90;;;;;;4976443;28;20030;-73
2022/08/12 14:11:19;;;;;;;8.40;7.60;;;13.60;99.90;;;;;;4977591;28;20927;-71
2022/08/12 14:13:47;;;;;;;9.27;8.35;;;13.60;99.90;;;;;;4976576;28;20038;-71
2022/08/12 14:16:16;;;;;;;8.55;7.75;;;13.60;99.90;;;;;;4978841;28;20022;-71
2022/08/12 14:18:44;;;;;;;8.23;7.40;;;13.60;99.90;;;;;;4976320;28;20117;-71
2022/08/12 14:21:14;;;;;;;8.07;7.38;;;13.60;99.90;;;;;;4978885;28;20018;-73
2022/08/12 14:23:50;;;;;;;8.80;8.02;;;13.60;99.90;;;;;;4974890;28;20480;-69
2022/08/12 14:26:23;;;;;;;8.88;8.00;;;13.60;99.90;;;;;;4978140;28;20069;-71
2022/08/12 14:28:54;;;;;;;8.95;8.05;;;13.60;99.90;;;;;;4975772;28;20503;-73
2022/08/12 14:31:22;;;;;;;8.68;7.88;;;13.60;99.90;;;;;;4977882;28;20027;-72
2022/08/12 14:33:51;;;;;;;10.23;9.23;;;13.60;99.90;;;;;;4976004;28;20040;-73
2022/08/12 14:36:23;;;;;;;10.40;9.40;;;13.60;99.90;;;;;;4993125;28;20054;-73
2022/08/12 14:38:53;;;;;;;11.48;9.32;;;13.60;99.90;;;;;;4976431;28;20029;-71
2022/08/12 14:41:22;;;;;;;9.77;8.88;;;13.60;99.90;;;;;;4978296;28;20468;-71
2022/08/12 14:43:50;;;;;;;9.75;8.38;;;13.60;99.90;;;;;;4975968;28;20034;-72
2022/08/12 14:46:20;;;;;;;10.07;9.07;;;13.60;99.90;;;;;;4977680;28;20021;-73
2022/08/12 14:48:50;;;;;;;12.57;10.25;;;13.60;99.90;;;;;;4974970;28;20054;-71
2022/08/12 14:51:20;;;;;;;10.73;9.73;;;13.60;99.90;;;;;;4977515;28;20065;-71